Time;durP1;ratioP1;P1;durP2;ratioP2;P2;SDS_P1;SDS_P2;PMS_P1;PMS_P2;Temp;Humidity;BMP_temperature;BMP_pressure;BME280_temperature;BME280_humidity;BME280_pressure;Samples;Min_cycle;Max_cycle;Signal;HPM_P1;HPM_P2
2022/04/11 00:00:33;;;;;;;7.30;5.13;;;3.70;99.90;;;;;;5093088;28;20175;-48
2022/04/11 00:02:59;;;;;;;7.43;5.13;;;3.70;99.90;;;;;;5093114;28;20248;-49
2022/04/11 00:05:25;;;;;;;6.50;5.23;;;3.70;99.90;;;;;;5093098;28;20224;-48
2022/04/11 00:07:50;;;;;;;8.43;5.37;;;3.70;99.90;;;;;;5093056;28;20633;-48
2022/04/11 00:10:16;;;;;;;9.80;5.90;;;3.70;99.90;;;;;;5094735;28;20528;-47
2022/04/11 00:12:42;;;;;;;8.93;5.67;;;3.70;99.90;;;;;;5097886;28;20183;-48
2022/04/11 00:15:08;;;;;;;9.13;5.53;;;3.70;99.90;;;;;;5098372;28;20218;-47
2022/04/11 00:17:34;;;;;;;6.27;5.10;;;3.80;99.90;;;;;;5097184;28;20244;-48
2022/04/11 00:20:00;;;;;;;7.93;5.33;;;3.80;99.90;;;;;;5097057;28;20193;-48
2022/04/11 00:22:26;;;;;;;7.67;5.70;;;3.80;99.90;;;;;;5096900;28;20656;-47
2022/04/11 00:24:52;;;;;;;8.43;5.37;;;4.00;99.90;;;;;;5096762;28;20171;-49
2022/04/11 00:27:18;;;;;;;6.13;5.07;;;4.00;99.90;;;;;;5078394;28;20198;-49
2022/04/11 00:29:43;;;;;;;6.40;5.20;;;4.10;99.90;;;;;;5096899;28;20171;-48
2022/04/11 00:32:09;;;;;;;6.10;5.47;;;4.10;99.90;;;;;;5096810;28;20179;-49
2022/04/11 00:34:35;;;;;;;6.10;5.10;;;4.10;99.90;;;;;;5078737;28;20179;-48
2022/04/11 00:37:00;;;;;;;8.20;5.37;;;4.20;99.90;;;;;;5096533;28;20201;-48
2022/04/11 00:39:26;;;;;;;11.13;5.73;;;4.20;99.90;;;;;;5096628;28;20644;-48
2022/04/11 00:41:51;;;;;;;7.87;5.60;;;4.30;99.90;;;;;;5096327;28;20214;-47
2022/04/11 00:44:18;;;;;;;5.80;5.27;;;4.30;99.90;;;;;;5096349;28;20171;-47
2022/04/11 00:46:43;;;;;;;7.43;5.20;;;4.30;99.90;;;;;;5096300;28;20194;-48
2022/04/11 00:49:09;;;;;;;9.27;5.10;;;4.30;99.90;;;;;;5096283;28;20170;-46
2022/04/11 00:51:35;;;;;;;9.50;5.43;;;4.30;99.90;;;;;;5096242;28;20167;-48
2022/04/11 00:54:01;;;;;;;7.33;5.77;;;4.30;99.90;;;;;;5096188;28;20202;-47
2022/04/11 00:56:29;;;;;;;6.43;5.33;;;4.30;99.90;;;;;;5096025;28;20212;-47
2022/04/11 00:58:56;;;;;;;8.00;5.53;;;4.30;99.90;;;;;;5096629;28;20539;-48
2022/04/11 01:01:22;;;;;;;8.50;5.43;;;4.20;99.90;;;;;;5096036;28;20236;-47
2022/04/11 01:03:47;;;;;;;12.13;5.03;;;4.20;99.90;;;;;;5096137;28;20679;-47
2022/04/11 01:06:13;;;;;;;7.00;5.40;;;4.20;99.90;;;;;;5095923;28;20278;-47
2022/04/11 01:08:39;;;;;;;6.53;4.97;;;4.30;99.90;;;;;;5095880;28;20170;-47
2022/04/11 01:11:05;;;;;;;12.00;5.30;;;4.30;99.90;;;;;;5096147;28;20525;-48
2022/04/11 01:13:31;;;;;;;8.23;5.33;;;4.40;99.90;;;;;;5095863;28;20182;-50
2022/04/11 01:16:00;;;;;;;10.30;5.27;;;4.40;99.90;;;;;;5095789;28;20195;-49
2022/04/11 01:18:25;;;;;;;6.40;5.33;;;4.50;99.90;;;;;;5095939;28;20183;-47
2022/04/11 01:20:52;;;;;;;6.87;4.87;;;4.50;99.90;;;;;;5095853;28;20177;-48
2022/04/11 01:23:18;;;;;;;6.20;5.10;;;4.50;99.90;;;;;;5094982;28;20203;-47
2022/04/11 01:25:49;;;;;;;8.50;5.53;;;4.50;99.90;;;;;;5095524;28;20194;-48
2022/04/11 01:28:15;;;;;;;9.80;5.40;;;4.50;99.90;;;;;;5096097;28;20198;-47
2022/04/11 01:30:40;;;;;;;9.93;5.67;;;4.50;99.90;;;;;;5095739;28;20644;-48
2022/04/11 01:33:17;;;;;;;6.93;5.67;;;4.50;99.90;;;;;;5095389;28;20183;-47
2022/04/11 01:35:43;;;;;;;8.93;5.33;;;4.50;99.90;;;;;;5095530;28;20218;-48
2022/04/11 01:38:08;;;;;;;6.53;5.07;;;4.50;99.90;;;;;;5095664;28;20656;-48
2022/04/11 01:40:34;;;;;;;9.17;5.43;;;4.50;99.90;;;;;;5095266;28;20710;-47
2022/04/11 01:42:59;;;;;;;10.97;5.10;;;4.50;99.90;;;;;;5095193;28;20203;-47
2022/04/11 01:45:25;;;;;;;7.20;5.27;;;4.40;99.90;;;;;;5095078;28;20171;-47
2022/04/11 01:47:51;;;;;;;7.30;5.07;;;4.50;99.90;;;;;;5095196;28;20201;-50
2022/04/11 01:50:16;;;;;;;6.20;4.67;;;4.40;99.90;;;;;;5076911;28;20179;-48
2022/04/11 01:52:42;;;;;;;8.43;5.27;;;4.50;99.90;;;;;;5095014;28;20260;-48
2022/04/11 01:55:08;;;;;;;11.13;5.53;;;4.50;99.90;;;;;;5095271;28;20175;-48
2022/04/11 01:57:33;;;;;;;7.57;4.50;;;4.50;99.90;;;;;;5094950;28;20202;-48
2022/04/11 01:59:59;;;;;;;6.63;4.73;;;4.50;99.90;;;;;;5094841;28;20185;-49
2022/04/11 02:02:24;;;;;;;11.37;5.30;;;4.40;99.90;;;;;;5094856;28;20234;-48
2022/04/11 02:04:50;;;;;;;8.40;4.90;;;4.50;99.90;;;;;;5094762;28;20172;-48
2022/04/11 02:07:16;;;;;;;7.03;4.60;;;4.50;99.90;;;;;;5094907;28;20201;-49
2022/04/11 02:09:41;;;;;;;7.30;4.50;;;4.50;99.90;;;;;;5094673;28;20185;-48
2022/04/11 02:12:07;;;;;;;7.13;4.40;;;4.50;99.90;;;;;;5094658;28;20210;-50
2022/04/11 02:14:33;;;;;;;4.90;4.43;;;4.50;99.90;;;;;;5094827;28;20185;-48
2022/04/11 02:16:58;;;;;;;7.37;4.27;;;4.50;99.90;;;;;;5094487;28;20198;-48
2022/04/11 02:19:24;;;;;;;6.30;4.10;;;4.40;99.90;;;;;;5094520;28;20171;-48
2022/04/11 02:21:49;;;;;;;4.83;4.33;;;4.40;99.90;;;;;;5094325;28;20178;-49
2022/04/11 02:24:15;;;;;;;4.53;4.13;;;4.40;99.90;;;;;;5094422;28;20645;-48
2022/04/11 02:26:40;;;;;;;8.37;4.40;;;4.40;99.90;;;;;;5094437;28;20234;-49
2022/04/11 02:29:06;;;;;;;7.07;4.23;;;4.40;99.90;;;;;;5094318;28;20175;-49
2022/04/11 02:31:34;;;;;;;8.10;4.80;;;4.40;99.90;;;;;;5094285;28;20183;-48
2022/04/11 02:34:00;;;;;;;8.97;4.50;;;4.40;99.90;;;;;;5093989;28;20174;-49
2022/04/11 02:36:25;;;;;;;9.83;4.37;;;4.40;99.90;;;;;;5095002;28;20201;-47
2022/04/11 02:38:51;;;;;;;6.83;4.13;;;4.40;99.90;;;;;;5094164;28;20185;-46
2022/04/11 02:41:18;;;;;;;5.30;4.40;;;4.40;99.90;;;;;;5094053;28;20198;-50
2022/04/11 02:43:43;;;;;;;7.90;4.90;;;4.30;99.90;;;;;;5094329;28;20568;-46
2022/04/11 02:46:09;;;;;;;7.50;4.23;;;4.30;99.90;;;;;;5093980;28;20266;-49
2022/04/11 02:48:34;;;;;;;5.70;4.23;;;4.20;99.90;;;;;;5094165;28;20579;-47
2022/04/11 02:51:00;;;;;;;7.20;4.23;;;4.30;99.90;;;;;;5094007;28;20194;-48
2022/04/11 02:53:26;;;;;;;7.83;4.77;;;4.20;99.90;;;;;;5094034;28;20233;-48
2022/04/11 02:55:51;;;;;;;7.90;4.70;;;4.20;99.90;;;;;;5094158;28;20252;-48
2022/04/11 02:58:17;;;;;;;5.60;4.27;;;4.20;99.90;;;;;;5093923;28;20673;-46
2022/04/11 03:00:42;;;;;;;9.13;4.70;;;4.20;99.90;;;;;;5094115;28;20179;-47
2022/04/11 03:03:10;;;;;;;9.30;4.73;;;4.10;99.90;;;;;;5093722;28;20213;-47
2022/04/11 03:05:36;;;;;;;7.53;4.43;;;4.10;99.90;;;;;;5093910;28;20179;-48
2022/04/11 03:08:02;;;;;;;6.47;4.03;;;4.10;99.90;;;;;;5093802;28;20174;-48
2022/04/11 03:10:27;;;;;;;5.47;3.73;;;4.10;99.90;;;;;;5093785;28;20171;-49
2022/04/11 03:12:53;;;;;;;5.73;4.00;;;4.10;99.90;;;;;;5094022;28;20179;-48
2022/04/11 03:15:18;;;;;;;7.70;4.70;;;4.10;99.90;;;;;;5093898;28;20179;-47
2022/04/11 03:17:44;;;;;;;5.97;4.27;;;4.00;99.90;;;;;;5093625;28;20189;-47
2022/04/11 03:20:10;;;;;;;5.67;4.53;;;4.00;99.90;;;;;;5093552;28;20179;-48
2022/04/11 03:22:36;;;;;;;5.67;4.17;;;4.00;99.90;;;;;;5093471;28;20755;-47
2022/04/11 03:25:01;;;;;;;6.40;4.30;;;4.00;99.90;;;;;;5093769;28;20197;-48
2022/04/11 03:27:27;;;;;;;6.70;4.03;;;4.00;99.90;;;;;;5093487;28;20293;-48
2022/04/11 03:29:53;;;;;;;6.27;4.33;;;4.00;99.90;;;;;;5093781;28;20175;-48
2022/04/11 03:32:18;;;;;;;6.97;4.10;;;3.90;99.90;;;;;;5093408;28;20206;-47
2022/04/11 03:34:44;;;;;;;5.43;4.43;;;3.90;99.90;;;;;;5094012;28;20185;-45
2022/04/11 03:37:10;;;;;;;5.77;4.13;;;3.90;99.90;;;;;;5093859;28;20570;-46
2022/04/11 03:39:36;;;;;;;4.83;3.73;;;3.80;99.90;;;;;;5093845;28;20194;-48
2022/04/11 03:42:01;;;;;;;5.63;3.63;;;3.80;99.90;;;;;;5093143;28;20213;-48
2022/04/11 03:44:27;;;;;;;4.73;3.50;;;3.80;99.90;;;;;;5093269;28;20171;-47
2022/04/11 03:46:53;;;;;;;8.03;4.30;;;3.70;99.90;;;;;;5097467;28;20554;-47
2022/04/11 03:49:19;;;;;;;5.23;4.07;;;3.70;99.90;;;;;;5097687;28;20248;-48
2022/04/11 03:51:45;;;;;;;7.73;3.80;;;3.70;99.90;;;;;;5097409;28;20711;-50
2022/04/11 03:54:10;;;;;;;9.63;3.87;;;3.60;99.90;;;;;;5097631;28;20182;-47
2022/04/11 03:56:36;;;;;;;3.70;3.40;;;3.60;99.90;;;;;;5079080;28;20195;-48
2022/04/11 03:59:02;;;;;;;6.40;4.07;;;3.60;99.90;;;;;;5097874;28;20540;-48
2022/04/11 04:01:28;;;;;;;10.83;3.43;;;3.60;99.90;;;;;;5097505;28;20171;-47
2022/04/11 04:03:53;;;;;;;4.80;3.60;;;3.50;99.90;;;;;;5111803;22;20230;-41
2022/04/11 04:06:20;;;;;;;5.40;3.80;;;3.50;99.90;;;;;;5079296;28;20621;-40
2022/04/11 04:08:45;;;;;;;5.03;3.93;;;3.40;99.90;;;;;;5078804;28;20210;-39
2022/04/11 04:11:11;;;;;;;4.90;4.00;;;3.40;99.90;;;;;;5097143;28;20203;-39
2022/04/11 04:13:36;;;;;;;7.07;4.20;;;3.40;99.90;;;;;;5078693;28;20773;-39
2022/04/11 04:16:02;;;;;;;8.63;4.30;;;3.30;99.90;;;;;;5097039;28;20199;-42
2022/04/11 04:18:28;;;;;;;6.70;3.97;;;3.30;99.90;;;;;;5078609;28;20186;-41
2022/04/11 04:20:54;;;;;;;4.50;3.93;;;3.30;99.90;;;;;;5096807;28;20171;-39
2022/04/11 04:23:19;;;;;;;6.07;4.40;;;3.20;99.90;;;;;;5096722;28;20200;-39
2022/04/11 04:25:45;;;;;;;8.57;4.00;;;3.20;99.90;;;;;;5096654;28;20274;-38
2022/04/11 04:28:10;;;;;;;7.73;4.60;;;3.20;99.90;;;;;;5096678;28;20231;-39
2022/04/11 04:30:36;;;;;;;4.33;3.93;;;3.20;99.90;;;;;;5096632;28;20174;-39
2022/04/11 04:33:02;;;;;;;4.67;3.83;;;3.20;99.90;;;;;;5096793;28;20182;-41
2022/04/11 04:35:27;;;;;;;3.93;3.40;;;3.10;99.90;;;;;;5096445;28;20178;-39
2022/04/11 04:37:53;;;;;;;4.73;3.77;;;3.10;99.90;;;;;;5096954;28;20182;-42
2022/04/11 04:40:19;;;;;;;6.13;3.93;;;3.10;99.90;;;;;;5096501;28;20259;-38
2022/04/11 04:42:45;;;;;;;6.37;4.23;;;3.10;99.90;;;;;;5078153;28;20199;-40
2022/04/11 04:45:12;;;;;;;4.67;3.77;;;3.10;99.90;;;;;;5096332;28;20174;-39
2022/04/11 04:47:38;;;;;;;5.63;3.60;;;3.20;99.90;;;;;;5096514;28;20198;-41
2022/04/11 04:50:05;;;;;;;5.57;3.80;;;3.10;99.90;;;;;;5096561;28;20679;-40
2022/04/11 04:52:30;;;;;;;6.13;3.60;;;3.20;99.90;;;;;;5096795;28;20175;-38
2022/04/11 04:54:56;;;;;;;6.90;3.97;;;3.20;99.90;;;;;;5096421;28;20681;-41
2022/04/11 04:57:21;;;;;;;6.40;3.40;;;3.20;99.90;;;;;;5095262;28;20206;-40
2022/04/11 04:59:47;;;;;;;5.00;3.70;;;3.20;99.90;;;;;;5096005;28;20182;-40
2022/04/11 05:02:12;;;;;;;3.97;3.57;;;3.20;99.90;;;;;;5096101;28;20693;-39
2022/04/11 05:04:38;;;;;;;6.43;4.00;;;3.20;99.90;;;;;;5078024;28;20677;-41
2022/04/11 05:07:04;;;;;;;6.47;3.63;;;3.20;99.90;;;;;;5096387;28;20186;-39
2022/04/11 05:09:29;;;;;;;5.17;3.93;;;3.20;99.90;;;;;;5096117;28;20599;-41
2022/04/11 05:11:55;;;;;;;5.83;3.67;;;3.10;99.90;;;;;;5095818;28;20178;-40
2022/04/11 05:14:21;;;;;;;8.60;3.77;;;3.20;99.90;;;;;;5096065;28;20690;-40
2022/04/11 05:16:46;;;;;;;6.83;4.00;;;3.10;99.90;;;;;;5095855;28;20291;-41
2022/04/11 05:19:13;;;;;;;5.00;3.57;;;3.10;99.90;;;;;;5095894;28;20301;-42
2022/04/11 05:21:39;;;;;;;7.80;3.90;;;3.10;99.90;;;;;;5095930;28;20261;-43
2022/04/11 05:24:05;;;;;;;5.97;3.90;;;3.20;99.90;;;;;;5095368;28;20213;-42
2022/04/11 05:26:30;;;;;;;7.07;4.20;;;3.10;99.90;;;;;;5095486;28;20737;-42
2022/04/11 05:28:56;;;;;;;4.77;3.47;;;3.20;99.90;;;;;;5095751;28;20177;-41
2022/04/11 05:31:21;;;;;;;6.27;4.40;;;3.20;99.90;;;;;;5095642;28;20178;-42
2022/04/11 05:33:47;;;;;;;5.77;4.03;;;3.20;99.90;;;;;;5095346;28;20227;-42
2022/04/11 05:36:14;;;;;;;5.37;3.63;;;3.20;99.90;;;;;;5095280;28;20202;-44
2022/04/11 05:38:40;;;;;;;7.50;3.80;;;3.30;99.90;;;;;;5095388;28;20260;-43
2022/04/11 05:41:06;;;;;;;5.37;3.83;;;3.30;99.90;;;;;;5095214;28;20653;-44
2022/04/11 05:43:31;;;;;;;7.17;3.80;;;3.30;99.90;;;;;;5095125;28;20215;-43
2022/04/11 05:45:59;;;;;;;6.20;3.57;;;3.40;99.90;;;;;;5095255;28;20240;-44
2022/04/11 05:48:25;;;;;;;9.90;4.33;;;3.40;99.90;;;;;;5095036;28;20177;-43
2022/04/11 05:50:50;;;;;;;7.10;4.53;;;3.50;99.90;;;;;;5095240;28;20182;-43
2022/04/11 05:53:17;;;;;;;5.97;3.67;;;3.60;99.90;;;;;;5095205;28;20182;-45
2022/04/11 05:55:43;;;;;;;7.77;4.00;;;3.60;99.90;;;;;;5095147;28;20278;-43
2022/04/11 05:58:08;;;;;;;10.60;4.07;;;3.70;99.90;;;;;;5095264;28;20258;-45
2022/04/11 06:00:34;;;;;;;8.27;4.13;;;3.70;99.90;;;;;;5095079;28;20649;-45
2022/04/11 06:02:59;;;;;;;5.73;3.03;;;3.80;99.90;;;;;;5094608;28;20228;-43
2022/04/11 06:05:25;;;;;;;9.67;4.37;;;3.80;99.90;;;;;;5095002;28;20166;-43
2022/04/11 06:07:51;;;;;;;5.67;3.70;;;3.90;99.90;;;;;;5094587;28;20184;-44
2022/04/11 06:10:16;;;;;;;6.40;3.63;;;4.00;99.90;;;;;;5094748;28;20240;-42
2022/04/11 06:12:42;;;;;;;5.53;3.80;;;4.00;99.90;;;;;;5094763;28;20175;-42
2022/04/11 06:15:08;;;;;;;6.67;3.90;;;4.20;99.90;;;;;;5094787;28;20171;-42
2022/04/11 06:17:34;;;;;;;5.07;3.30;;;4.30;99.90;;;;;;5094441;28;20285;-44
2022/04/11 06:20:00;;;;;;;4.10;3.07;;;4.40;99.90;;;;;;5095299;28;20190;-43
2022/04/11 06:22:27;;;;;;;8.30;4.10;;;4.60;99.90;;;;;;5094638;28;20693;-45
2022/04/11 06:25:01;;;;;;;6.80;3.70;;;4.70;99.90;;;;;;5094391;28;20222;-44
2022/04/11 06:27:27;;;;;;;6.60;3.77;;;4.90;99.90;;;;;;5094379;28;20262;-44
2022/04/11 06:29:56;;;;;;;4.93;3.77;;;5.10;99.90;;;;;;5094812;28;20228;-44
2022/04/11 06:32:27;;;;;;;5.13;3.90;;;5.30;99.90;;;;;;5094252;28;20186;-44
2022/04/11 06:34:53;;;;;;;6.60;4.00;;;5.50;99.90;;;;;;5094187;28;20174;-42
2022/04/11 06:37:18;;;;;;;7.57;4.10;;;5.70;99.90;;;;;;5094101;28;20687;-43
2022/04/11 06:39:44;;;;;;;6.33;4.23;;;5.90;99.90;;;;;;5075929;28;20651;-44
2022/04/11 06:42:10;;;;;;;4.53;3.60;;;6.10;99.90;;;;;;5094235;28;20202;-43
2022/04/11 06:44:37;;;;;;;6.23;3.60;;;6.30;99.90;;;;;;5094903;28;20174;-45
2022/04/11 06:47:03;;;;;;;5.87;3.50;;;6.50;99.90;;;;;;5093858;28;20202;-42
2022/04/11 06:49:29;;;;;;;7.60;3.27;;;6.60;99.90;;;;;;5094190;28;20565;-46
2022/04/11 06:51:55;;;;;;;7.53;3.20;;;6.80;99.90;;;;;;5093947;28;20176;-45
2022/04/11 06:54:21;;;;;;;9.87;3.60;;;6.90;99.90;;;;;;5093846;28;20171;-46
2022/04/11 06:56:46;;;;;;;4.67;3.03;;;7.00;99.90;;;;;;5094057;28;20552;-44
2022/04/11 06:59:12;;;;;;;7.47;3.90;;;7.10;99.90;;;;;;5093807;28;20170;-45
2022/04/11 07:01:38;;;;;;;12.07;3.47;;;7.30;99.90;;;;;;5093772;28;20171;-46
2022/04/11 07:04:03;;;;;;;6.20;3.67;;;7.40;99.90;;;;;;5093462;28;20207;-43
2022/04/11 07:06:29;;;;;;;5.07;3.17;;;7.50;99.90;;;;;;5093894;28;20687;-44
2022/04/11 07:08:55;;;;;;;4.80;3.50;;;7.60;99.90;;;;;;5093662;28;20172;-44
2022/04/11 07:11:20;;;;;;;9.10;4.57;;;7.80;99.90;;;;;;5093558;28;20255;-45
2022/04/11 07:13:46;;;;;;;6.63;4.20;;;7.80;99.90;;;;;;5093628;28;20242;-44
2022/04/11 07:16:11;;;;;;;7.27;3.53;;;7.90;99.90;;;;;;5093474;28;20201;-44
2022/04/11 07:18:37;;;;;;;6.43;3.70;;;8.10;99.90;;;;;;5093809;28;20181;-44
2022/04/11 07:21:02;;;;;;;8.20;3.70;;;8.20;99.90;;;;;;5093068;28;20185;-45
2022/04/11 07:23:28;;;;;;;6.10;3.47;;;8.30;99.90;;;;;;5093405;28;20549;-45
2022/04/11 07:25:54;;;;;;;5.10;3.70;;;8.40;99.90;;;;;;5093363;28;20219;-45
2022/04/11 07:28:19;;;;;;;5.47;4.00;;;8.60;99.90;;;;;;5093723;28;20170;-44
2022/04/11 07:30:45;;;;;;;5.17;3.40;;;8.70;99.90;;;;;;5093737;28;20210;-46
2022/04/11 07:33:10;;;;;;;7.97;3.33;;;8.80;99.90;;;;;;5093433;28;20547;-46
2022/04/11 07:35:36;;;;;;;7.50;3.40;;;8.90;99.90;;;;;;5093962;28;20183;-40
2022/04/11 07:38:02;;;;;;;6.13;3.67;;;9.10;99.90;;;;;;5093646;28;20182;-41
2022/04/11 07:40:29;;;;;;;5.70;3.53;;;9.20;99.90;;;;;;5093374;28;20206;-41
2022/04/11 07:42:54;;;;;;;5.67;3.10;;;9.30;99.90;;;;;;5093295;28;20191;-41
2022/04/11 07:45:21;;;;;;;6.80;3.30;;;9.50;99.90;;;;;;5075165;28;20182;-40
2022/04/11 07:47:46;;;;;;;10.83;3.60;;;9.60;99.90;;;;;;5093256;28;20186;-42
2022/04/11 07:50:12;;;;;;;6.40;3.33;;;9.60;99.90;;;;;;5075131;28;20179;-42
2022/04/11 07:52:38;;;;;;;6.10;3.37;;;9.70;99.90;;;;;;5093247;28;20206;-41
2022/04/11 07:55:06;;;;;;;8.80;3.60;;;9.80;99.90;;;;;;5093543;28;20171;-42
2022/04/11 07:57:32;;;;;;;6.23;3.60;;;9.90;99.90;;;;;;5093083;28;20202;-39
2022/04/11 07:59:57;;;;;;;3.53;2.90;;;10.00;99.90;;;;;;5093236;28;20182;-41
2022/04/11 08:02:25;;;;;;;6.03;3.73;;;10.10;99.90;;;;;;5093110;28;20607;-42
2022/04/11 08:04:54;;;;;;;6.67;3.70;;;10.30;99.90;;;;;;5074952;28;20756;-43
2022/04/11 08:07:20;;;;;;;4.13;3.03;;;10.40;99.90;;;;;;5074961;28;20192;-40
2022/04/11 08:09:48;;;;;;;6.10;3.03;;;10.60;99.90;;;;;;5093038;28;20193;-40
2022/04/11 08:12:16;;;;;;;6.17;2.93;;;10.60;99.90;;;;;;5093592;28;20198;-41
2022/04/11 08:14:42;;;;;;;5.70;2.77;;;10.70;99.90;;;;;;5093620;28;20187;-41
2022/04/11 08:17:07;;;;;;;4.67;2.77;;;10.90;99.90;;;;;;5093053;28;20190;-42
2022/04/11 08:19:33;;;;;;;9.53;3.50;;;11.00;99.90;;;;;;5092968;28;20264;-42
2022/04/11 08:21:59;;;;;;;5.37;2.77;;;11.00;99.90;;;;;;5093391;28;20531;-41
2022/04/11 08:24:24;;;;;;;4.13;2.93;;;11.10;99.90;;;;;;5092919;28;20174;-42
2022/04/11 08:26:50;;;;;;;10.43;3.37;;;11.10;99.90;;;;;;5092838;28;20610;-40
2022/04/11 08:29:17;;;;;;;4.77;3.30;;;11.10;99.90;;;;;;5093614;28;20174;-41
2022/04/11 08:31:43;;;;;;;4.17;2.70;;;11.20;99.90;;;;;;5095249;28;20185;-39
2022/04/11 08:34:09;;;;;;;6.10;3.37;;;11.30;99.90;;;;;;5096661;28;20179;-40
2022/04/11 08:36:35;;;;;;;4.30;2.87;;;11.30;99.90;;;;;;5096554;28;20228;-42
2022/04/11 08:39:01;;;;;;;8.07;2.77;;;11.40;99.90;;;;;;5096645;28;20182;-40
2022/04/11 08:41:36;;;;;;;5.20;2.77;;;11.40;99.90;;;;;;5096386;28;20257;-42
2022/04/11 08:44:07;;;;;;;5.07;2.90;;;11.60;99.90;;;;;;5096631;28;20194;-40
2022/04/11 08:46:34;;;;;;;5.03;3.00;;;11.60;99.90;;;;;;5096540;28;20286;-41
2022/04/11 08:49:03;;;;;;;8.07;3.27;;;11.70;99.90;;;;;;5096315;28;20163;-42
2022/04/11 08:51:32;;;;;;;5.43;3.17;;;11.80;99.90;;;;;;5096509;28;20636;-40
2022/04/11 08:54:06;;;;;;;5.03;3.30;;;11.80;99.90;;;;;;5078829;28;20547;-45
2022/04/11 08:56:33;;;;;;;3.87;2.80;;;11.90;99.90;;;;;;5082863;28;20217;-46
2022/04/11 08:58:59;;;;;;;7.20;3.00;;;12.10;99.90;;;;;;5082650;28;20269;-47
2022/04/11 09:01:25;;;;;;;5.93;3.17;;;12.20;99.90;;;;;;5100729;28;20231;-45
2022/04/11 09:03:51;;;;;;;7.17;2.73;;;12.10;99.90;;;;;;5100426;28;20217;-45
2022/04/11 09:06:18;;;;;;;4.47;2.90;;;12.10;99.90;;;;;;5079411;28;20199;-41
2022/04/11 09:08:51;;;;;;;5.93;2.60;;;12.20;99.90;;;;;;5077955;28;20197;-45
2022/04/11 09:11:34;;;;;;;5.47;2.80;;;12.30;99.90;;;;;;5079660;28;20162;-47
2022/04/11 09:14:05;;;;;;;4.03;2.60;;;12.40;99.90;;;;;;5097106;28;20651;-43
2022/04/11 09:16:48;;;;;;;5.77;2.80;;;12.50;99.90;;;;;;5095723;28;20612;-42
2022/04/11 09:19:25;;;;;;;6.13;2.77;;;12.60;99.90;;;;;;5095635;28;20191;-42
2022/04/11 09:21:54;;;;;;;4.43;2.47;;;12.60;99.90;;;;;;5095927;28;20182;-42
2022/04/11 09:24:20;;;;;;;5.67;2.87;;;12.70;99.90;;;;;;5095913;28;20187;-43
2022/04/11 09:26:51;;;;;;;9.17;2.70;;;12.80;99.90;;;;;;5095447;28;20206;-42
2022/04/11 09:29:17;;;;;;;5.50;2.57;;;12.80;99.90;;;;;;5095584;28;20159;-41
2022/04/11 09:31:43;;;;;;;2.87;2.30;;;12.90;99.90;;;;;;5095704;28;20190;-41
2022/04/11 09:34:17;;;;;;;3.27;2.23;;;13.00;99.90;;;;;;5095618;28;20237;-42
2022/04/11 09:36:50;;;;;;;6.13;2.20;;;13.10;99.90;;;;;;5077175;28;20319;-39
2022/04/11 09:39:19;;;;;;;4.30;3.03;;;13.20;99.90;;;;;;5095795;28;20262;-43
2022/04/11 09:41:46;;;;;;;5.60;2.90;;;13.30;99.90;;;;;;5077162;28;20182;-43
2022/04/11 09:44:26;;;;;;;1.60;1.47;;;13.40;99.90;;;;;;5076327;28;20657;-40
2022/04/11 09:46:55;;;;;;;5.57;2.67;;;13.40;99.90;;;;;;5095687;28;20203;-44
2022/04/11 09:49:22;;;;;;;3.60;2.17;;;13.50;99.90;;;;;;5095161;28;20179;-42
2022/04/11 09:52:11;;;;;;;4.60;2.53;;;13.60;99.90;;;;;;5095173;28;20179;-42
2022/04/11 09:54:49;;;;;;;6.13;2.33;;;13.70;99.90;;;;;;5077207;28;20219;-42
2022/04/11 09:57:16;;;;;;;4.43;2.60;;;13.80;99.90;;;;;;5076987;28;20206;-41
2022/04/11 09:59:43;;;;;;;4.63;2.00;;;13.80;99.90;;;;;;5095118;28;20534;-43
2022/04/11 10:02:12;;;;;;;4.10;2.37;;;13.90;99.90;;;;;;5076754;28;20221;-44
2022/04/11 10:04:39;;;;;;;4.87;2.80;;;14.00;99.90;;;;;;5076688;28;20205;-42
2022/04/11 10:07:09;;;;;;;4.20;2.27;;;13.90;99.90;;;;;;5094950;28;20691;-43
2022/04/11 10:09:39;;;;;;;4.40;2.30;;;14.10;99.90;;;;;;5095420;28;20573;-43
2022/04/11 10:12:05;;;;;;;5.33;2.27;;;14.10;99.90;;;;;;5095228;28;20232;-42
2022/04/11 10:14:31;;;;;;;4.93;2.43;;;14.20;99.90;;;;;;5094742;28;20182;-43
2022/04/11 10:17:00;;;;;;;4.10;1.90;;;14.30;99.90;;;;;;5094522;28;20256;-42
2022/04/11 10:19:38;;;;;;;6.47;2.20;;;14.30;99.90;;;;;;5076377;28;20185;-42
2022/04/11 10:22:11;;;;;;;5.33;2.40;;;14.40;99.90;;;;;;5094821;28;20166;-43
2022/04/11 10:25:04;;;;;;;4.60;2.03;;;14.50;99.90;;;;;;5094623;28;20205;-43
2022/04/11 10:27:29;;;;;;;4.93;1.87;;;14.60;99.90;;;;;;5095070;28;20659;-43
2022/04/11 10:29:56;;;;;;;4.10;2.00;;;14.70;99.90;;;;;;5094634;28;20198;-44
2022/04/11 10:32:24;;;;;;;5.67;2.47;;;14.70;99.90;;;;;;5094578;28;20592;-43
2022/04/11 10:35:02;;;;;;;4.67;1.90;;;14.80;99.90;;;;;;5094722;28;20186;-43
2022/04/11 10:37:40;;;;;;;3.27;1.60;;;14.90;99.90;;;;;;5094341;28;20198;-42
2022/04/11 10:40:21;;;;;;;3.30;2.20;;;14.90;99.90;;;;;;5095004;28;20671;-42
2022/04/11 10:43:05;;;;;;;5.23;1.83;;;15.00;99.90;;;;;;5094277;28;20255;-42
2022/04/11 10:45:39;;;;;;;2.80;1.90;;;15.00;99.90;;;;;;5094135;28;20167;-41
2022/04/11 10:48:06;;;;;;;3.77;2.10;;;15.10;99.90;;;;;;5094698;28;20159;-42
2022/04/11 10:50:38;;;;;;;3.67;2.07;;;15.20;99.90;;;;;;5076446;28;20607;-41
2022/04/11 10:53:23;;;;;;;2.73;2.03;;;15.20;99.90;;;;;;5094709;28;20652;-42
2022/04/11 10:55:56;;;;;;;4.17;2.20;;;15.30;99.90;;;;;;5094439;28;20562;-42
2022/04/11 10:58:23;;;;;;;4.53;2.57;;;15.30;99.90;;;;;;5094310;28;20185;-41
2022/04/11 11:00:51;;;;;;;7.00;2.20;;;15.30;99.90;;;;;;5094024;28;20229;-42
2022/04/11 11:03:17;;;;;;;5.73;1.93;;;15.40;99.90;;;;;;5075759;28;20210;-40
2022/04/11 11:05:49;;;;;;;4.03;2.40;;;15.40;99.90;;;;;;5094002;28;20194;-43
2022/04/11 11:08:15;;;;;;;3.17;2.20;;;15.60;99.90;;;;;;5094055;28;20175;-41
2022/04/11 11:10:58;;;;;;;2.47;2.00;;;15.60;99.90;;;;;;5076162;28;20247;-41
2022/04/11 11:13:36;;;;;;;2.13;1.87;;;15.60;99.90;;;;;;5094149;28;20212;-41
2022/04/11 11:16:07;;;;;;;6.37;2.70;;;15.70;99.90;;;;;;5093679;28;20213;-42
2022/04/11 11:18:51;;;;;;;5.67;2.30;;;15.80;99.90;;;;;;5094020;28;20175;-43
2022/04/11 11:21:22;;;;;;;2.83;1.90;;;15.80;99.90;;;;;;5093867;28;20198;-42
2022/04/11 11:27:03;;;;;;;2.90;1.87;;;16.00;99.90;;;;;;5093887;28;20201;-41
2022/04/11 11:29:43;;;;;;;6.13;2.50;;;16.00;99.90;;;;;;5093607;28;20583;-40
2022/04/11 11:32:12;;;;;;;6.63;2.37;;;16.00;99.90;;;;;;5093613;28;20167;-41
2022/04/11 11:34:39;;;;;;;4.50;2.33;;;16.10;99.90;;;;;;5094425;28;20285;-42
2022/04/11 11:37:13;;;;;;;5.60;2.27;;;16.20;99.90;;;;;;5059959;28;20205;-42
2022/04/11 11:39:42;;;;;;;3.90;2.00;;;16.20;99.90;;;;;;5093446;28;20163;-42
2022/04/11 11:42:10;;;;;;;4.60;2.13;;;16.20;99.90;;;;;;5093253;28;20171;-43
2022/04/11 11:44:43;;;;;;;4.77;2.83;;;16.30;99.90;;;;;;5075317;28;20181;-42
2022/04/11 11:47:09;;;;;;;3.50;2.50;;;16.30;99.90;;;;;;5093424;28;20269;-42
2022/04/11 11:49:47;;;;;;;3.57;2.20;;;16.40;99.90;;;;;;5075264;28;20726;-43
2022/04/11 11:52:18;;;;;;;4.87;2.30;;;16.50;99.90;;;;;;5093705;28;20163;-42
2022/04/11 11:54:54;;;;;;;3.47;2.47;;;16.60;99.90;;;;;;5093323;28;20181;-42
2022/04/11 11:57:32;;;;;;;5.30;2.70;;;16.70;99.90;;;;;;5093182;28;20247;-43
2022/04/11 12:00:03;;;;;;;3.30;2.47;;;16.80;99.90;;;;;;5074861;28;20262;-42
2022/04/11 12:05:18;;;;;;;3.13;2.27;;;16.90;99.90;;;;;;5093580;28;20584;-41
2022/04/11 12:07:46;;;;;;;4.63;2.67;;;17.00;99.90;;;;;;5096721;28;20240;-42
2022/04/11 12:10:12;;;;;;;3.77;2.40;;;17.00;99.90;;;;;;5097225;28;20171;-41
2022/04/11 12:12:39;;;;;;;4.07;2.30;;;17.10;99.90;;;;;;5097373;28;20179;-43
2022/04/11 12:15:08;;;;;;;5.40;3.00;;;17.10;99.90;;;;;;5097039;28;20174;-41
2022/04/11 12:17:39;;;;;;;2.70;2.50;;;17.20;99.90;;;;;;5097461;28;20248;-42
2022/04/11 12:20:08;;;;;;;4.40;2.40;;;17.10;99.90;;;;;;5097279;28;20225;-42
2022/04/11 12:22:35;;;;;;;4.97;3.17;;;17.20;99.90;;;;;;5096853;28;20202;-42
2022/04/11 12:25:20;;;;;;;6.03;3.27;;;17.20;99.90;;;;;;5096779;28;20179;-43
2022/04/11 12:27:49;;;;;;;9.00;3.50;;;17.20;99.90;;;;;;5078781;28;20171;-42
2022/04/11 12:30:15;;;;;;;5.83;3.07;;;17.20;99.90;;;;;;5079145;28;20250;-41
2022/04/11 12:32:41;;;;;;;5.33;3.17;;;17.30;99.90;;;;;;5097097;28;20167;-43
2022/04/11 12:35:15;;;;;;;4.90;3.10;;;17.30;99.90;;;;;;5096745;28;20183;-42
2022/04/11 12:37:51;;;;;;;5.50;3.13;;;17.40;99.90;;;;;;5096748;28;20202;-41
2022/04/11 12:40:18;;;;;;;4.00;2.80;;;17.30;99.90;;;;;;5096914;28;20178;-42
2022/04/11 12:42:44;;;;;;;6.67;2.67;;;17.30;99.90;;;;;;5096614;28;20205;-42
2022/04/11 12:45:14;;;;;;;7.07;3.90;;;17.30;99.90;;;;;;5096519;28;20713;-43
2022/04/11 12:48:03;;;;;;;4.60;3.37;;;17.30;99.90;;;;;;5096292;28;20190;-41
2022/04/11 12:50:30;;;;;;;6.33;3.00;;;17.30;99.90;;;;;;5096708;28;20170;-42
2022/04/11 12:52:56;;;;;;;6.10;3.03;;;17.30;99.90;;;;;;5096784;28;20179;-42
2022/04/11 12:55:25;;;;;;;3.77;2.97;;;17.50;99.90;;;;;;5096803;28;20208;-40
2022/04/11 12:58:06;;;;;;;5.67;3.20;;;17.60;99.90;;;;;;5096382;28;20182;-41
2022/04/11 13:00:35;;;;;;;10.30;3.03;;;17.60;99.90;;;;;;5096121;28;20193;-43